Time;durP1;ratioP1;P1;durP2;ratioP2;P2;SDS_P1;SDS_P2;PMS_P1;PMS_P2;Temp;Humidity;BMP_temperature;BMP_pressure;BME280_temperature;BME280_humidity;BME280_pressure;Samples;Min_cycle;Max_cycle;Signal;HPM_P1;HPM_P2
2022/03/01 00:00:25;;;;;;;69.95;43.05;;;3.10;1.00;;;;;;5056692;28;20059;-77
2022/03/01 00:02:53;;;;;;;67.68;44.55;;;2.90;1.00;;;;;;5054868;28;20053;-78
2022/03/01 00:05:20;;;;;;;67.70;44.03;;;2.90;99.90;;;;;;5056211;28;20049;-78
2022/03/01 00:07:48;;;;;;;68.10;42.45;;;2.90;99.90;;;;;;5056430;28;20071;-78
2022/03/01 00:10:16;;;;;;;75.75;46.10;;;2.80;99.90;;;;;;5057485;28;20060;-77
2022/03/01 00:12:44;;;;;;;72.95;47.20;;;2.80;99.90;;;;;;5057366;28;20496;-77
2022/03/01 00:15:12;;;;;;;74.68;45.45;;;2.70;99.90;;;;;;5055133;28;20049;-77
2022/03/01 00:17:39;;;;;;;73.00;45.05;;;2.70;1.00;;;;;;5068001;28;20136;-78
2022/03/01 00:20:08;;;;;;;77.43;46.95;;;2.60;1.00;;;;;;5076776;28;20052;-78
2022/03/01 00:22:36;;;;;;;76.30;48.40;;;2.60;1.00;;;;;;5057748;28;20041;-78
2022/03/01 00:25:04;;;;;;;85.53;49.17;;;2.60;1.00;;;;;;5075552;28;20081;-77
2022/03/01 00:27:32;;;;;;;77.57;47.70;;;2.60;99.90;;;;;;5076072;28;20046;-77
2022/03/01 00:30:08;;;;;;;76.03;45.78;;;2.60;99.90;;;;;;5075893;28;20060;-77
2022/03/01 00:32:35;;;;;;;75.63;45.40;;;2.70;99.90;;;;;;5057136;28;20048;-76
2022/03/01 00:35:03;;;;;;;72.45;44.13;;;2.70;99.90;;;;;;5059131;28;20099;-76
2022/03/01 00:37:31;;;;;;;75.30;44.03;;;2.70;99.90;;;;;;5057984;28;20039;-77
2022/03/01 00:39:58;;;;;;;68.05;43.00;;;2.70;99.90;;;;;;5063131;28;20472;-77
2022/03/01 00:42:26;;;;;;;66.85;39.85;;;2.60;99.90;;;;;;5082277;28;20040;-77
2022/03/01 00:44:53;;;;;;;66.03;39.83;;;2.70;99.90;;;;;;5066026;28;20037;-76
2022/03/01 00:47:22;;;;;;;62.88;38.92;;;2.60;99.90;;;;;;5080548;28;20518;-77
2022/03/01 00:49:50;;;;;;;65.97;37.55;;;2.60;1.00;;;;;;5079345;28;20106;-76
2022/03/01 00:52:17;;;;;;;64.53;39.58;;;2.60;1.00;;;;;;5061604;28;20075;-77
2022/03/01 00:54:45;;;;;;;59.50;37.10;;;2.60;1.00;;;;;;5057245;28;20048;-76
2022/03/01 00:57:12;;;;;;;59.53;38.70;;;2.70;1.00;;;;;;5074411;28;20127;-77
2022/03/01 00:59:40;;;;;;;64.60;39.42;;;2.60;1.00;;;;;;5056268;28;20063;-76
2022/03/01 01:02:07;;;;;;;61.30;37.67;;;2.60;1.00;;;;;;5074689;28;20078;-77
2022/03/01 01:04:36;;;;;;;64.80;36.95;;;2.60;1.00;;;;;;5073981;28;20128;-76
2022/03/01 01:07:09;;;;;;;60.10;37.30;;;2.50;1.00;;;;;;5056265;28;20041;-77
2022/03/01 01:09:36;;;;;;;60.78;37.25;;;2.50;1.00;;;;;;5074097;28;20067;-76
2022/03/01 01:12:06;;;;;;;56.15;36.47;;;2.50;1.00;;;;;;5054481;28;20468;-76
2022/03/01 01:14:33;;;;;;;58.28;34.58;;;2.50;59.70;;;;;;5053626;28;20074;-76
2022/03/01 01:17:01;;;;;;;56.92;34.70;;;2.60;99.90;;;;;;5036135;28;20053;-76
2022/03/01 01:19:28;;;;;;;57.28;36.13;;;2.60;74.50;;;;;;5036214;28;20118;-76
2022/03/01 01:24:51;;;;;;;45.33;31.45;;;2.60;1.00;;;;;;5064274;28;20079;-77
2022/03/01 01:27:18;;;;;;;49.65;32.05;;;2.60;1.00;;;;;;5058643;28;20043;-76
2022/03/01 01:29:46;;;;;;;46.10;29.85;;;2.70;21.30;;;;;;5076149;28;20041;-75
2022/03/01 01:32:13;;;;;;;42.08;26.88;;;2.70;1.00;;;;;;5075618;28;20054;-77
2022/03/01 01:34:41;;;;;;;41.38;26.05;;;2.60;1.00;;;;;;5075953;28;20041;-76
2022/03/01 01:37:10;;;;;;;38.28;26.05;;;2.60;1.00;;;;;;5076066;28;20047;-76
2022/03/01 01:39:38;;;;;;;42.58;27.25;;;2.60;1.00;;;;;;5045584;28;20098;-77
2022/03/01 01:42:06;;;;;;;38.70;25.38;;;2.70;1.00;;;;;;5039333;28;20071;-77
2022/03/01 01:44:34;;;;;;;37.47;24.65;;;2.70;1.00;;;;;;5049169;28;20053;-76
2022/03/01 01:47:02;;;;;;;38.67;24.35;;;2.70;1.00;;;;;;5074754;28;20052;-75
2022/03/01 01:49:29;;;;;;;37.25;24.13;;;2.70;1.00;;;;;;5074517;28;20388;-76
2022/03/01 01:51:57;;;;;;;37.53;24.63;;;2.60;1.00;;;;;;5073391;28;20049;-77
2022/03/01 01:54:26;;;;;;;38.67;25.55;;;2.60;1.00;;;;;;5072239;28;20037;-77
2022/03/01 01:56:53;;;;;;;40.75;26.63;;;2.60;1.00;;;;;;5054686;28;20474;-77
2022/03/01 01:59:21;;;;;;;39.00;26.02;;;2.60;1.00;;;;;;5072704;28;20064;-77
2022/03/01 02:01:49;;;;;;;41.65;27.67;;;2.60;1.00;;;;;;5067607;28;20040;-77
2022/03/01 02:04:16;;;;;;;43.53;27.45;;;2.60;1.00;;;;;;5049775;28;20381;-77
2022/03/01 02:06:51;;;;;;;39.10;26.15;;;2.60;1.00;;;;;;5064339;28;20044;-77
2022/03/01 02:09:18;;;;;;;39.87;24.43;;;2.50;1.00;;;;;;5065151;28;20078;-76
2022/03/01 02:11:47;;;;;;;37.13;24.17;;;2.50;56.40;;;;;;5056495;28;20045;-77
2022/03/01 02:14:15;;;;;;;33.25;21.92;;;2.50;70.10;;;;;;5057341;28;20548;-78
2022/03/01 02:16:43;;;;;;;32.45;21.48;;;2.50;1.00;;;;;;5068567;28;20110;-76
2022/03/01 02:19:13;;;;;;;34.28;23.02;;;2.50;1.00;;;;;;5080204;28;20054;-77
2022/03/01 02:21:47;;;;;;;31.02;21.70;;;2.50;1.00;;;;;;5080086;28;20044;-77
2022/03/01 02:24:16;;;;;;;32.00;21.05;;;2.50;1.00;;;;;;5079764;28;20051;-77
2022/03/01 02:26:43;;;;;;;29.50;19.83;;;2.50;1.00;;;;;;5080528;28;20091;-78
2022/03/01 02:29:15;;;;;;;30.30;20.00;;;2.50;1.00;;;;;;5063572;28;20079;-82
2022/03/01 02:31:42;;;;;;;24.83;17.70;;;2.50;1.00;;;;;;5080753;28;20455;-77
2022/03/01 02:34:10;;;;;;;29.00;19.73;;;2.50;1.00;;;;;;5062687;28;20404;-78
2022/03/01 02:36:38;;;;;;;28.05;18.33;;;2.50;23.70;;;;;;5043052;28;20040;-77
2022/03/01 02:39:07;;;;;;;28.50;18.63;;;2.50;99.90;;;;;;5065557;28;20036;-77
2022/03/01 02:41:38;;;;;;;30.25;19.92;;;2.60;90.30;;;;;;5063747;28;20131;-77
2022/03/01 02:44:06;;;;;;;24.13;16.70;;;2.50;1.00;;;;;;5082262;28;20045;-77
2022/03/01 02:46:33;;;;;;;25.42;16.98;;;2.40;1.00;;;;;;5080743;28;20410;-77
2022/03/01 02:49:01;;;;;;;25.77;17.17;;;2.40;1.00;;;;;;5080504;28;20068;-77
2022/03/01 02:51:29;;;;;;;27.27;18.63;;;2.40;1.00;;;;;;5062154;28;20135;-77
2022/03/01 02:53:57;;;;;;;25.80;16.98;;;2.40;1.00;;;;;;5079662;28;20060;-77
2022/03/01 02:56:26;;;;;;;26.73;16.92;;;2.40;1.00;;;;;;5080543;28;20049;-76
2022/03/01 02:58:55;;;;;;;26.75;17.25;;;2.40;31.90;;;;;;5080881;28;20090;-78
2022/03/01 03:01:23;;;;;;;27.55;17.58;;;2.40;1.00;;;;;;5063031;28;20068;-78
2022/03/01 03:03:51;;;;;;;27.58;17.75;;;2.40;1.00;;;;;;5062782;28;20567;-77
2022/03/01 03:06:19;;;;;;;25.88;17.63;;;2.40;5.20;;;;;;5062579;28;20059;-77
2022/03/01 03:08:46;;;;;;;25.15;17.23;;;2.40;1.00;;;;;;5062033;28;20072;-78
2022/03/01 03:11:14;;;;;;;24.40;16.73;;;2.40;1.00;;;;;;5062874;28;20056;-77
2022/03/01 03:13:43;;;;;;;23.92;15.82;;;2.40;1.00;;;;;;5080564;28;20055;-77
2022/03/01 03:16:11;;;;;;;23.70;16.48;;;2.30;1.00;;;;;;5080510;28;20044;-77
2022/03/01 03:18:39;;;;;;;24.70;16.77;;;2.30;1.00;;;;;;5058746;28;20049;-78
2022/03/01 03:21:06;;;;;;;25.02;18.27;;;2.20;99.90;;;;;;5059467;28;20055;-76
2022/03/01 03:23:34;;;;;;;27.05;18.80;;;2.30;99.90;;;;;;5059521;28;20349;-78
2022/03/01 03:26:02;;;;;;;28.48;19.40;;;2.20;99.90;;;;;;5056346;28;20079;-76
2022/03/01 03:28:30;;;;;;;28.15;18.85;;;2.30;1.00;;;;;;5057531;28;20037;-77
2022/03/01 03:30:59;;;;;;;26.67;18.92;;;2.30;1.00;;;;;;5055886;28;20041;-76
2022/03/01 03:33:27;;;;;;;30.45;20.58;;;2.30;1.00;;;;;;5058039;28;20044;-76
2022/03/01 03:35:56;;;;;;;29.83;20.83;;;2.20;46.70;;;;;;5057805;28;20099;-76
2022/03/01 03:38:24;;;;;;;34.47;21.42;;;2.20;1.00;;;;;;5048740;28;20053;-77
2022/03/01 03:40:52;;;;;;;34.25;22.15;;;2.30;1.00;;;;;;5039355;28;20077;-77
2022/03/01 03:43:20;;;;;;;30.25;21.35;;;2.30;99.90;;;;;;5038903;28;20052;-77
2022/03/01 03:45:48;;;;;;;31.30;21.08;;;2.30;1.00;;;;;;5035775;28;20053;-78
2022/03/01 03:48:17;;;;;;;35.35;23.77;;;2.30;1.00;;;;;;5035903;28;20424;-78
2022/03/01 03:50:44;;;;;;;39.15;25.33;;;2.10;99.90;;;;;;5035926;28;20057;-77
2022/03/01 03:53:12;;;;;;;38.38;25.20;;;2.20;1.00;;;;;;5054745;28;20063;-77
2022/03/01 03:55:40;;;;;;;41.20;25.80;;;2.10;99.90;;;;;;5066421;28;20057;-76
2022/03/01 03:58:07;;;;;;;39.60;25.70;;;2.10;1.00;;;;;;5072530;28;20037;-78
2022/03/01 04:00:35;;;;;;;40.13;26.25;;;2.00;1.00;;;;;;5054901;28;20083;-76
2022/03/01 04:03:03;;;;;;;38.53;25.20;;;2.00;64.80;;;;;;5054874;28;20052;-77
2022/03/01 04:05:32;;;;;;;39.20;25.83;;;2.00;99.90;;;;;;5054847;28;20045;-77
2022/03/01 04:08:00;;;;;;;40.88;26.92;;;2.00;1.00;;;;;;5060235;28;20060;-77
2022/03/01 04:10:28;;;;;;;39.83;26.55;;;2.00;1.00;;;;;;5068680;28;20053;-76
2022/03/01 04:12:55;;;;;;;40.78;25.23;;;2.00;1.00;;;;;;5071358;28;20550;-77
2022/03/01 04:15:23;;;;;;;32.72;20.92;;;2.00;1.00;;;;;;5068932;28;20048;-77
2022/03/01 04:17:51;;;;;;;28.77;18.48;;;2.00;1.00;;;;;;5073948;28;20049;-77
2022/03/01 04:20:21;;;;;;;27.35;18.35;;;1.90;1.00;;;;;;5064561;28;20136;-77
2022/03/01 04:22:50;;;;;;;20.15;14.43;;;1.80;1.00;;;;;;5077574;28;20074;-77
2022/03/01 04:25:18;;;;;;;21.90;14.43;;;1.70;8.70;;;;;;5081378;28;20044;-76
2022/03/01 04:27:46;;;;;;;17.02;11.95;;;1.60;1.00;;;;;;5062871;28;20139;-77
2022/03/01 04:30:19;;;;;;;16.35;11.98;;;1.60;1.00;;;;;;5069220;28;20033;-77
2022/03/01 04:32:47;;;;;;;15.40;11.02;;;1.50;99.90;;;;;;5082444;28;20066;-78
2022/03/01 04:35:15;;;;;;;17.77;11.65;;;1.40;1.00;;;;;;5061113;28;20051;-77
2022/03/01 04:37:44;;;;;;;19.42;13.02;;;1.40;99.90;;;;;;5057055;28;20048;-76
2022/03/01 04:40:16;;;;;;;18.00;13.13;;;1.40;99.90;;;;;;5060399;28;20043;-77
2022/03/01 04:42:44;;;;;;;19.27;12.90;;;1.30;1.00;;;;;;5065168;28;20041;-76
2022/03/01 04:45:12;;;;;;;21.15;14.38;;;1.30;23.00;;;;;;5067442;28;20140;-76
2022/03/01 04:47:40;;;;;;;22.20;14.63;;;1.30;99.90;;;;;;5065926;28;20060;-77
2022/03/01 04:50:08;;;;;;;24.13;15.20;;;1.20;1.00;;;;;;5082371;28;20098;-77
2022/03/01 04:52:36;;;;;;;20.38;14.13;;;1.20;1.00;;;;;;5087058;28;20096;-78
2022/03/01 04:55:04;;;;;;;19.00;12.73;;;1.20;1.00;;;;;;5085442;28;20045;-79
2022/03/01 04:57:32;;;;;;;18.80;12.73;;;1.20;99.90;;;;;;5080998;28;20128;-77
2022/03/01 05:00:00;;;;;;;19.73;14.13;;;1.20;99.90;;;;;;5081761;28;20070;-77
2022/03/01 05:02:27;;;;;;;21.35;15.93;;;1.20;99.90;;;;;;5082666;28;20044;-79
2022/03/01 05:04:55;;;;;;;21.92;15.63;;;1.10;99.90;;;;;;5062268;28;20488;-78
2022/03/01 05:07:22;;;;;;;21.67;16.40;;;1.20;99.90;;;;;;5080203;28;20119;-78
2022/03/01 05:09:50;;;;;;;22.13;16.60;;;1.20;34.40;;;;;;5081129;28;20056;-79
2022/03/01 05:12:19;;;;;;;23.77;17.48;;;1.20;1.00;;;;;;5062999;28;20044;-79
2022/03/01 05:14:56;;;;;;;24.48;18.70;;;1.20;1.00;;;;;;5062755;28;20492;-78
2022/03/01 05:17:23;;;;;;;28.80;20.27;;;1.20;1.00;;;;;;5077820;28;20044;-78
2022/03/01 05:19:51;;;;;;;30.55;21.10;;;1.20;1.00;;;;;;5073216;28;20045;-80
2022/03/01 05:22:18;;;;;;;30.13;22.15;;;1.20;1.00;;;;;;5067916;28;20043;-78
2022/03/01 05:24:46;;;;;;;25.67;19.83;;;1.20;1.00;;;;;;5061816;28;20044;-78
2022/03/01 05:27:14;;;;;;;26.67;20.67;;;1.20;1.00;;;;;;5063265;28;20139;-79
2022/03/01 05:29:41;;;;;;;25.83;20.45;;;1.20;1.00;;;;;;5078100;28;20043;-79
2022/03/01 05:32:11;;;;;;;28.10;21.30;;;1.30;1.00;;;;;;5080106;28;20052;-77
2022/03/01 05:34:38;;;;;;;27.15;20.42;;;1.30;99.90;;;;;;5080973;28;20052;-78
2022/03/01 05:37:06;;;;;;;28.80;21.75;;;1.30;99.90;;;;;;5083047;28;20048;-79
2022/03/01 05:39:34;;;;;;;34.42;21.67;;;1.40;99.90;;;;;;5080723;28;20040;-78
2022/03/01 05:42:01;;;;;;;30.08;20.70;;;1.40;1.00;;;;;;5054674;28;20060;-80
2022/03/01 05:44:29;;;;;;;32.50;21.63;;;1.40;1.00;;;;;;5052563;28;20044;-78
2022/03/01 05:46:56;;;;;;;31.40;22.92;;;1.50;1.00;;;;;;5061517;28;20062;-77
2022/03/01 05:49:26;;;;;;;29.15;20.88;;;1.60;1.00;;;;;;5077235;28;20055;-79
2022/03/01 05:51:54;;;;;;;27.70;19.85;;;1.60;99.90;;;;;;5059985;28;20446;-79
2022/03/01 05:54:21;;;;;;;30.40;21.50;;;1.60;94.40;;;;;;5079014;28;20104;-78
2022/03/01 05:56:48;;;;;;;28.83;21.00;;;1.80;99.90;;;;;;5076783;28;20047;-77
2022/03/01 05:59:16;;;;;;;26.90;19.33;;;2.00;99.90;;;;;;5078371;28;20062;-78
2022/03/01 06:01:43;;;;;;;26.10;19.63;;;2.10;99.90;;;;;;5077290;28;20036;-78
2022/03/01 06:04:11;;;;;;;27.23;19.42;;;2.30;99.90;;;;;;5078968;28;20215;-78
2022/03/01 06:06:40;;;;;;;25.52;19.17;;;2.50;99.90;;;;;;5080290;28;20119;-79
2022/03/01 06:09:12;;;;;;;26.92;18.85;;;2.50;1.00;;;;;;5080755;28;20386;-80
2022/03/01 06:11:40;;;;;;;27.77;20.70;;;2.60;1.00;;;;;;5079810;28;20071;-78
2022/03/01 06:14:08;;;;;;;28.55;21.08;;;2.70;1.00;;;;;;5061036;28;20072;-79
2022/03/01 06:16:35;;;;;;;27.40;20.02;;;2.90;1.00;;;;;;5081196;28;20094;-79
2022/03/01 06:19:03;;;;;;;28.00;19.00;;;3.00;1.00;;;;;;5061529;28;20583;-78
2022/03/01 06:21:31;;;;;;;25.13;16.70;;;3.10;99.90;;;;;;5062996;28;20569;-80
2022/03/01 06:24:02;;;;;;;24.67;16.42;;;3.10;99.90;;;;;;5061121;28;20052;-78
2022/03/01 06:26:30;;;;;;;24.48;16.20;;;3.10;1.00;;;;;;5062023;28;20045;-78
2022/03/01 06:28:57;;;;;;;24.98;16.30;;;3.10;1.00;;;;;;5077896;28;20090;-78
2022/03/01 06:31:25;;;;;;;24.08;16.83;;;3.00;1.00;;;;;;5060591;28;20041;-79
2022/03/01 06:33:54;;;;;;;26.77;17.92;;;2.90;1.00;;;;;;5080398;28;20072;-80
2022/03/01 06:36:21;;;;;;;25.08;17.50;;;2.80;1.00;;;;;;5062843;28;20044;-79
2022/03/01 06:38:49;;;;;;;26.67;17.23;;;2.80;99.90;;;;;;5047751;28;20511;-79
2022/03/01 06:41:18;;;;;;;27.67;17.60;;;2.80;1.00;;;;;;5041380;28;20044;-80
2022/03/01 06:43:45;;;;;;;28.48;18.42;;;2.90;1.00;;;;;;5041519;28;20045;-79
2022/03/01 06:46:15;;;;;;;24.75;16.30;;;2.90;5.50;;;;;;5058915;28;20494;-79
2022/03/01 06:48:43;;;;;;;31.30;20.98;;;2.90;1.00;;;;;;5046202;28;20460;-79
2022/03/01 06:51:10;;;;;;;38.80;24.05;;;2.80;99.90;;;;;;5075074;28;20053;-79
2022/03/01 06:53:38;;;;;;;41.17;25.98;;;2.60;1.00;;;;;;5063584;28;20522;-78
2022/03/01 06:56:05;;;;;;;47.30;27.33;;;2.60;99.90;;;;;;5079038;28;20044;-78
2022/03/01 06:58:34;;;;;;;39.70;23.35;;;2.70;99.90;;;;;;5068861;28;20113;-78
2022/03/01 07:01:02;;;;;;;44.33;27.05;;;2.70;99.90;;;;;;5072417;28;20104;-78
2022/03/01 07:03:30;;;;;;;51.88;27.27;;;2.90;10.00;;;;;;5086037;28;20055;-79
2022/03/01 07:05:57;;;;;;;50.55;27.42;;;3.00;99.90;;;;;;5079839;28;20037;-78
2022/03/01 07:08:25;;;;;;;48.28;26.63;;;3.00;1.00;;;;;;5051360;28;20049;-79
2022/03/01 07:10:54;;;;;;;28.70;18.45;;;3.10;99.90;;;;;;5063492;28;20127;-80
2022/03/01 07:13:21;;;;;;;28.05;18.55;;;3.10;99.90;;;;;;5070814;28;20462;-79
2022/03/01 07:15:50;;;;;;;34.03;21.23;;;3.20;99.90;;;;;;5081545;28;20116;-79
2022/03/01 07:18:18;;;;;;;27.77;18.50;;;3.50;99.90;;;;;;5081790;28;20044;-80
2022/03/01 07:20:46;;;;;;;28.60;19.30;;;3.60;99.90;;;;;;5082058;28;20109;-78
2022/03/01 07:23:13;;;;;;;28.10;18.60;;;3.70;99.90;;;;;;5062715;28;20140;-77
2022/03/01 07:25:41;;;;;;;29.83;19.42;;;3.80;4.30;;;;;;5061213;28;20048;-78
2022/03/01 07:28:08;;;;;;;34.67;21.92;;;4.00;1.00;;;;;;5060125;28;20070;-77
2022/03/01 07:30:36;;;;;;;35.55;23.38;;;4.20;1.00;;;;;;5079084;28;20040;-78
2022/03/01 07:33:05;;;;;;;33.78;23.25;;;4.20;1.00;;;;;;5079740;28;20055;-78
2022/03/01 07:35:33;;;;;;;32.88;21.42;;;4.30;1.00;;;;;;5079514;28;20115;-78
2022/03/01 07:38:00;;;;;;;32.05;22.35;;;4.50;1.00;;;;;;5075592;28;20043;-80
2022/03/01 07:40:31;;;;;;;31.60;21.17;;;4.50;99.90;;;;;;5075035;28;20538;-80
2022/03/01 07:42:59;;;;;;;27.98;18.60;;;4.60;1.00;;;;;;5062796;28;20068;-80
2022/03/01 07:45:27;;;;;;;30.02;19.92;;;4.70;1.00;;;;;;5062525;28;20152;-77
2022/03/01 07:47:55;;;;;;;28.95;18.30;;;4.70;99.90;;;;;;5061153;28;20064;-78
2022/03/01 07:50:25;;;;;;;27.20;17.48;;;4.80;1.00;;;;;;5075252;28;20135;-78
2022/03/01 07:52:53;;;;;;;27.98;16.65;;;4.80;1.00;;;;;;5079173;28;20047;-76
2022/03/01 07:55:21;;;;;;;21.52;12.68;;;4.50;99.90;;;;;;5060107;28;20411;-77
2022/03/01 07:57:49;;;;;;;25.33;16.02;;;4.10;1.00;;;;;;5080195;28;20040;-80
2022/03/01 08:00:17;;;;;;;31.38;19.48;;;3.80;99.90;;;;;;5063936;28;20565;-78
2022/03/01 08:02:44;;;;;;;33.25;20.08;;;3.70;99.90;;;;;;5061812;28;20045;-79
2022/03/01 08:05:13;;;;;;;28.83;18.27;;;3.60;99.90;;;;;;5065347;28;20143;-78
2022/03/01 08:07:42;;;;;;;35.45;20.90;;;3.50;1.00;;;;;;5068952;28;20060;-76
2022/03/01 08:10:10;;;;;;;27.95;17.50;;;3.50;99.90;;;;;;5060571;28;20091;-78
2022/03/01 08:12:38;;;;;;;18.88;13.02;;;3.60;99.90;;;;;;5078602;28;20059;-79
2022/03/01 08:15:06;;;;;;;20.80;13.30;;;3.40;1.00;;;;;;5078947;28;20377;-78
2022/03/01 08:17:34;;;;;;;23.67;15.60;;;3.60;1.00;;;;;;5079599;28;20412;-79
2022/03/01 08:20:02;;;;;;;24.25;14.25;;;3.70;1.00;;;;;;5078702;28;20044;-76
2022/03/01 08:22:29;;;;;;;22.42;13.75;;;3.80;1.00;;;;;;5059480;28;20095;-78
2022/03/01 08:24:58;;;;;;;21.92;13.88;;;4.00;1.00;;;;;;5058783;28;20515;-77
2022/03/01 08:27:26;;;;;;;24.00;14.38;;;4.00;1.00;;;;;;5066919;28;20051;-77
2022/03/01 08:29:57;;;;;;;26.52;14.90;;;4.00;99.90;;;;;;5078892;28;20503;-79
2022/03/01 08:32:24;;;;;;;30.17;17.92;;;4.00;1.00;;;;;;5051786;28;20384;-75
2022/03/01 08:34:54;;;;;;;33.13;17.80;;;3.80;99.90;;;;;;5079191;28;20041;-79
2022/03/01 08:37:21;;;;;;;25.88;16.15;;;3.90;99.90;;;;;;5059570;28;20050;-76
2022/03/01 08:39:50;;;;;;;31.17;17.02;;;3.90;99.90;;;;;;5073195;28;20118;-77
2022/03/01 08:42:20;;;;;;;31.17;16.38;;;3.90;1.00;;;;;;5058882;28;20632;-77
2022/03/01 08:44:47;;;;;;;25.40;13.57;;;4.00;99.90;;;;;;5059295;28;20065;-78
2022/03/01 08:47:15;;;;;;;19.67;12.60;;;4.10;99.90;;;;;;5072745;28;20049;-77
2022/03/01 08:49:42;;;;;;;17.83;12.48;;;4.30;70.50;;;;;;5058459;28;20067;-77
2022/03/01 08:52:10;;;;;;;22.77;13.30;;;4.00;1.00;;;;;;5060378;28;20412;-76
2022/03/01 08:54:38;;;;;;;19.33;13.43;;;4.20;99.90;;;;;;5039707;28;20055;-77
2022/03/01 08:57:05;;;;;;;22.88;14.65;;;4.20;99.90;;;;;;5049310;28;20040;-79
2022/03/01 08:59:34;;;;;;;22.48;13.60;;;4.30;1.00;;;;;;5075414;28;20148;-77
2022/03/01 09:02:02;;;;;;;24.88;14.93;;;4.20;99.90;;;;;;5057870;28;20097;-77
2022/03/01 09:04:29;;;;;;;24.02;15.70;;;4.20;99.90;;;;;;5075536;28;20120;-78
2022/03/01 09:06:57;;;;;;;22.92;15.13;;;4.20;1.00;;;;;;5076222;28;20123;-78
2022/03/01 09:09:24;;;;;;;22.52;14.95;;;4.10;99.90;;;;;;5076656;28;20044;-77
2022/03/01 09:11:52;;;;;;;17.45;12.48;;;4.10;1.00;;;;;;5069559;28;20514;-78
2022/03/01 09:14:20;;;;;;;21.95;14.95;;;4.00;1.00;;;;;;5089276;28;20046;-78
2022/03/01 09:16:49;;;;;;;22.60;13.55;;;4.10;1.00;;;;;;5067097;28;20181;-79
2022/03/01 09:19:16;;;;;;;17.35;11.75;;;4.10;97.20;;;;;;5074152;28;20052;-77
2022/03/01 09:21:44;;;;;;;19.88;13.98;;;3.90;99.90;;;;;;5057182;28;20496;-78
2022/03/01 09:24:11;;;;;;;27.67;16.75;;;3.90;1.00;;;;;;5074136;28;20111;-77
2022/03/01 09:26:39;;;;;;;25.90;16.63;;;3.90;1.00;;;;;;5059597;28;20495;-78
2022/03/01 09:29:07;;;;;;;33.50;20.20;;;3.80;1.00;;;;;;5072845;28;20557;-78
2022/03/01 09:31:35;;;;;;;33.50;20.13;;;3.60;99.90;;;;;;5072787;28;20041;-80
2022/03/01 09:34:04;;;;;;;30.55;19.60;;;3.60;99.90;;;;;;5078666;28;20048;-77
2022/03/01 09:36:32;;;;;;;31.00;20.48;;;3.40;1.00;;;;;;5069487;28;20079;-77
2022/03/01 09:38:59;;;;;;;31.23;21.15;;;3.40;1.00;;;;;;5084386;28;20466;-78
2022/03/01 09:41:27;;;;;;;32.03;21.60;;;3.50;1.00;;;;;;5057961;28;20055;-78
2022/03/01 09:43:55;;;;;;;27.17;18.17;;;3.50;1.00;;;;;;5050943;28;20401;-80
2022/03/01 09:46:23;;;;;;;34.25;20.13;;;3.50;1.00;;;;;;5051155;28;20040;-79
2022/03/01 09:48:50;;;;;;;32.42;22.17;;;3.50;1.00;;;;;;5074866;28;20036;-79
2022/03/01 09:51:21;;;;;;;28.85;20.05;;;3.60;1.00;;;;;;5057878;28;20043;-77
2022/03/01 09:53:51;;;;;;;29.05;19.95;;;3.70;1.00;;;;;;5057090;28;20483;-78
2022/03/01 09:56:19;;;;;;;32.55;21.38;;;3.70;1.00;;;;;;5058943;28;20048;-79
2022/03/01 09:58:48;;;;;;;36.17;22.83;;;3.90;1.00;;;;;;5053683;28;20065;-77
2022/03/01 10:01:16;;;;;;;41.00;24.73;;;4.00;1.00;;;;;;5075885;28;20094;-80
2022/03/01 10:03:48;;;;;;;41.78;26.30;;;4.10;1.00;;;;;;5067078;28;20105;-78
2022/03/01 10:06:17;;;;;;;37.00;25.25;;;4.30;14.60;;;;;;5084228;28;20052;-77
2022/03/01 10:08:46;;;;;;;34.90;22.63;;;4.50;1.00;;;;;;5064028;28;20478;-78
2022/03/01 10:11:16;;;;;;;24.02;18.00;;;4.70;99.90;;;;;;5077624;28;20048;-77
2022/03/01 10:13:44;;;;;;;31.85;21.67;;;4.80;99.90;;;;;;5064743;28;20049;-77
2022/03/01 10:16:14;;;;;;;33.90;23.15;;;5.00;99.90;;;;;;5086382;28;20064;-77
2022/03/01 10:18:43;;;;;;;37.67;22.77;;;5.20;1.00;;;;;;5070351;28;20052;-77
2022/03/01 10:21:12;;;;;;;30.10;20.13;;;5.50;1.00;;;;;;5091589;28;20381;-77
2022/03/01 10:23:45;;;;;;;30.92;20.95;;;5.80;1.00;;;;;;5094856;28;20021;-77
2022/03/01 10:26:17;;;;;;;34.22;23.15;;;5.50;1.00;;;;;;5071609;28;20052;-77
2022/03/01 10:28:46;;;;;;;37.15;24.55;;;5.10;1.00;;;;;;5075481;28;20065;-78
2022/03/01 10:31:16;;;;;;;37.70;25.10;;;4.70;1.00;;;;;;5057570;28;20591;-78
2022/03/01 10:33:54;;;;;;;38.10;25.48;;;4.70;1.00;;;;;;5074743;28;20044;-78
2022/03/01 10:36:23;;;;;;;34.20;22.83;;;4.80;1.00;;;;;;5078039;28;20048;-77
2022/03/01 10:38:58;;;;;;;35.30;25.20;;;4.70;1.00;;;;;;5078774;28;20052;-77
2022/03/01 10:41:29;;;;;;;32.78;22.45;;;4.80;1.00;;;;;;5061613;28;20060;-78
2022/03/01 10:43:59;;;;;;;32.95;21.90;;;4.90;1.00;;;;;;5079049;28;20048;-78
2022/03/01 10:46:27;;;;;;;28.50;20.40;;;5.10;1.00;;;;;;5060461;28;20072;-77
2022/03/01 10:49:05;;;;;;;27.70;19.42;;;5.40;1.00;;;;;;5061373;28;20048;-77
2022/03/01 10:51:33;;;;;;;26.80;19.30;;;5.90;1.00;;;;;;5062816;28;20048;-78
2022/03/01 10:54:01;;;;;;;27.55;19.88;;;6.30;1.00;;;;;;5082676;28;20058;-77
2022/03/01 10:56:39;;;;;;;26.25;18.95;;;6.30;1.00;;;;;;5085576;28;20102;-78
2022/03/01 10:59:08;;;;;;;24.75;18.20;;;6.40;1.00;;;;;;5086340;28;20072;-77
2022/03/01 11:01:35;;;;;;;25.83;18.10;;;6.50;1.00;;;;;;5066065;28;20064;-77
2022/03/01 11:04:06;;;;;;;20.17;15.80;;;6.50;1.00;;;;;;5079651;28;20125;-78
2022/03/01 11:06:33;;;;;;;23.50;15.73;;;6.60;1.00;;;;;;5060579;28;20101;-80
2022/03/01 11:09:01;;;;;;;22.25;16.95;;;6.50;1.00;;;;;;5079664;28;20044;-77
2022/03/01 11:11:31;;;;;;;25.15;18.35;;;6.40;1.00;;;;;;5060825;28;20102;-78
2022/03/01 11:14:00;;;;;;;28.10;18.75;;;6.20;1.00;;;;;;5079000;28;20406;-78
2022/03/01 11:16:36;;;;;;;24.70;18.83;;;6.10;1.00;;;;;;5084895;28;20041;-79
2022/03/01 11:19:17;;;;;;;24.50;18.75;;;6.00;1.00;;;;;;5070595;28;20139;-77
2022/03/01 11:21:48;;;;;;;25.67;19.55;;;5.80;1.00;;;;;;5069508;28;20068;-76
2022/03/01 11:24:17;;;;;;;26.52;20.60;;;5.70;1.00;;;;;;5090135;28;20446;-79
2022/03/01 11:26:45;;;;;;;27.38;19.85;;;5.70;1.00;;;;;;5087680;28;20106;-78
2022/03/01 11:29:16;;;;;;;27.70;20.30;;;5.30;1.00;;;;;;5072012;28;20063;-78
2022/03/01 11:31:55;;;;;;;28.08;20.63;;;5.30;1.00;;;;;;5068860;28;20379;-77
2022/03/01 11:34:24;;;;;;;35.65;25.45;;;5.10;1.00;;;;;;5070205;28;20051;-77
2022/03/01 11:36:53;;;;;;;34.50;24.65;;;5.30;1.00;;;;;;5067854;28;20071;-79
2022/03/01 11:39:27;;;;;;;30.80;23.23;;;5.20;1.00;;;;;;5071680;28;20446;-77
2022/03/01 11:42:02;;;;;;;38.88;24.60;;;5.20;1.00;;;;;;5062238;28;20090;-79
2022/03/01 11:44:34;;;;;;;37.40;25.70;;;4.90;1.00;;;;;;5081617;28;20086;-77
2022/03/01 11:47:06;;;;;;;31.95;22.27;;;5.00;1.00;;;;;;5079088;28;20131;-78
2022/03/01 11:49:36;;;;;;;32.90;23.27;;;4.80;1.00;;;;;;5079630;28;20123;-78
2022/03/01 11:52:04;;;;;;;36.58;24.67;;;4.70;1.00;;;;;;5080179;28;20045;-78
2022/03/01 11:54:33;;;;;;;34.47;25.08;;;4.60;1.00;;;;;;5081143;28;20045;-79
2022/03/01 11:57:04;;;;;;;36.75;24.40;;;4.70;1.00;;;;;;5080479;28;20086;-78
2022/03/01 11:59:33;;;;;;;34.70;25.70;;;4.70;1.00;;;;;;5061772;28;20504;-77
2022/03/01 12:02:01;;;;;;;35.17;24.75;;;4.60;1.00;;;;;;5079838;28;20052;-78
2022/03/01 12:04:29;;;;;;;59.45;39.90;;;4.60;1.00;;;;;;5079441;28;20040;-78
2022/03/01 12:06:58;;;;;;;49.97;33.33;;;4.80;1.00;;;;;;5079713;28;20049;-78
2022/03/01 12:09:28;;;;;;;36.03;25.90;;;4.80;1.00;;;;;;5064974;28;20063;-78
2022/03/01 12:12:05;;;;;;;41.65;28.42;;;4.70;1.00;;;;;;5083469;28;20472;-78
2022/03/01 12:14:35;;;;;;;44.28;29.40;;;4.80;1.00;;;;;;5083095;28;20041;-77
2022/03/01 12:17:03;;;;;;;39.42;26.67;;;4.90;1.00;;;;;;5081846;28;20123;-79
2022/03/01 12:19:32;;;;;;;37.10;27.52;;;5.00;1.00;;;;;;5061528;28;20120;-78
2022/03/01 12:22:02;;;;;;;38.95;26.77;;;5.10;1.00;;;;;;5080222;28;20037;-78
2022/03/01 12:24:31;;;;;;;43.47;31.05;;;5.10;1.00;;;;;;5078688;28;20099;-78
2022/03/01 12:27:01;;;;;;;40.42;26.95;;;5.10;1.00;;;;;;5078221;28;20060;-77
2022/03/01 12:29:30;;;;;;;37.85;26.58;;;5.20;1.00;;;;;;5080543;28;20102;-77
2022/03/01 12:32:01;;;;;;;40.88;25.42;;;5.20;1.00;;;;;;5059775;28;20045;-79
2022/03/01 12:34:30;;;;;;;45.00;27.90;;;5.20;1.00;;;;;;5077867;28;20153;-78
2022/03/01 12:36:59;;;;;;;46.25;28.27;;;5.00;1.00;;;;;;5060453;28;20079;-78
2022/03/01 12:39:28;;;;;;;44.55;29.52;;;4.80;1.00;;;;;;5065866;28;20442;-78
2022/03/01 12:41:57;;;;;;;44.15;29.10;;;4.40;1.00;;;;;;5064498;28;20033;-78
2022/03/01 12:44:27;;;;;;;43.97;28.80;;;4.40;1.00;;;;;;5065351;28;20075;-78
2022/03/01 12:46:55;;;;;;;39.53;27.40;;;4.40;1.00;;;;;;5080266;28;20510;-77
2022/03/01 12:49:25;;;;;;;41.40;27.73;;;4.50;1.00;;;;;;5082095;28;20041;-78
2022/03/01 12:51:55;;;;;;;44.35;29.65;;;4.50;1.00;;;;;;5081067;28;20508;-79